Detall de PIREP

Printer-friendly versionPDF version

[2008/10/04 22:17:00]
Flight IATA:CT1006
Pilot Number:026
Company ICAO:CAT
Aircraft Type:B75F/E
PAX:0
Departing Airport: LICJ
Destination Airport: LTBA
Alternate Airport:LTAC
Online: VATSIM
Route:ROSAS UM152 CDC UL869 KRK UM600 TSL UM603 EKI
Flight Level:FL330
No Slew and time accel
No pause
Crash detect
Detect pilot in Cockpit between each 30 and 45 minutes
22:17 Zero fuel Weight: 230581 Lbs, Fuel Weight: 25698 Lbs
22:17 VATSIM:LICJ 042150Z 34014KT 9999 SCT028 20/11 Q1020
22:17 VATSIM:LTBA 042150Z 16006KT 9999 FEW035 20/18 Q1011 NOSIG
22:17 VOICE CATALONIAN / ALMOGAVERS ROUTE
22:24 Parking Brakes off
22:33 Take-off
22:33 Take off Weight: 254624 Lbs
22:33 Wind: 319º @ 018 Knots Heading: 019º
22:33 POS N38º 11´ 02´´ E013º 05´ 44´´
22:33 Gear Up: 189 Knots
22:33 Flaps:2 at 189 Knots
22:33 Flaps:1 at 196 Knots
22:34 Flaps:0 at 214 Knots
22:48 Wind:312º@034 Knots H
eading: 089º Ground Speed: 472 Knots Altitude 29005 ft
23:01 TOC
23:01 Fuel Weight: 16889 Lb
23:03 Wind:250º@028 Knots Heading: 066º Ground Speed: 495 Knots Altitude 32995 ft
23:18 Wind:280º@032 Knots Heading: 078º Ground Speed: 500 Knots Altitude 32942 ft
23:33 Wind:115º@010 Knots Heading: 066º Ground Speed: 468 Knots Altitude 32874 ft
23:48 Wind:055º@021 Knots Heading: 079º Ground Speed: 453 Knots Altitude 32880 ft
00:00 TOD
00:00 Fuel Weight: 8041 Lb
00:03 Wind:170º@021 Knots Heading: 088º Ground Speed: 417 Knots Altitude 23927 ft
00:18 Wind:181º@017 Knots Heading: 045º Ground Speed: 250 Knots Altitude 2985 ft
00:21 Flaps:1 at 181 Knots
00:21 Gear Down: 182 Knots
00:22 Flaps:2 at 165 Knots
00:24 Flaps:1 at 142 Knots
00:24 Flaps:2 at 155 Knots
00:24 Gear Up: 157 Knots
00:24 Flaps:3 at 142 Knots
00:25 Flaps:2 at 157 Knots
00:28 Flaps:1 at 221 Knots
00:28 F
laps:0 at 248 Knots
00:33 Wind:180º@009 Knots Heading: 004º Ground Speed: 238 Knots Altitude 2483 ft
00:39 Flaps:1 at 190 Knots
00:39 Flaps:2 at 190 Knots
00:39 Gear Down: 189 Knots
00:40 Flaps:3 at 189 Knots
00:42 Flaps:4 at 165 Knots
00:42 Flaps:5 at 159 Knots
00:42 TouchDown:Rate -409 ft/min Speed: 151 Knots
00:42 VATSIM:LTBA 050020Z 19012KT 9999 FEW035 21/18 Q1010 NOSIG
00:42 Land
00:42 Wind:186º@012 Knots
00:42 Heading: 179º
00:42 Flight Duration: 02:09
00:42 Landing Weight: 233538 Lbs
00:42 POS N40º 58´ 05´´ E028º 48´ 44´´
00:46 Parking brakes on
00:46 Block to Block Duration: 02:22
00:46 Final Fuel: 2427 Lbls
00:46 Spent Fuel: 23271 Lbls
00:46 Flight Length: 846 NM
00:46 TOD Land Length: 180 NM

Exportar CSV

Powered by Drupal - Modified by Danger4k